Robins Air Force Base
KWRB : now visible

Airfield :











YOU CAN JOIN US ON...

 
LOGIN :

Register | Disclaimer

   EN    FR    IT 

 









Legend :    VFR   Marginal VFR   IFR   Intensive IFR   Very Intensive IFR
Visi :
Ceiling :
>= 8 km
>= 3000ft
5 to 8 km
1000 to 3000 ft
1500m to 5 km
500 to 1000 ft
800 to 1500m
200 to 500 ft
< 800m
< 200 ft
Symbols :   Thunderstorms  Fog  Heavy snow  Heavy precipitations  Wind > 20 kt






- Airport Elevation : 294 ft


KWRB - Robins Air Force Base

CURRENT METAR :
  • 041455Z AUTO 35004KT 4SM BR OVC005 13/13 A3026 RMK AO2 VIS 1 7/8 RWY15 CIG 004 RWY15 SLP249 T01290129 52010

EXPIRED METARs :
  • 041428Z AUTO 35005KT 3SM BR OVC005 13/13 A3025 RMK AO2 VIS 2 RWY15 CIG 003 RWY15 SLP246
  • 041413Z AUTO 01003KT 4SM BR OVC004 13/13 A3025 RMK AO2 VIS 2 RWY15 CIG 003 RWY15 SLP246
  • 041401Z AUTO 35004KT 3SM BR OVC003 13/13 A3025 RMK AO2 VIS 1 1/2 RWY15 CIG 002 RWY15 SLP246
  • 041352Z AUTO 33004KT 2SM BR OVC003 13/13 A3024 RMK AO2 VIS 1 5/8V2 1/4 VIS 1 1/4 RWY15 SLP242
  • 041340Z AUTO 32003KT 2 3/4SM BR OVC003 13/13 A3024 RMK AO2 VIS 5/8 RWY15 SLP242
  • 041331Z AUTO 00000KT 3SM BR OVC002 13/13 A3024 RMK AO2 VIS 1 RWY15 SLP242
  • 041325Z AUTO 00000KT 1 5/8SM BR OVC002 13/13 A3024 RMK AO2 VIS 7/8V1 5/8 VIS 7/8 RWY15 SLP242
  • 041313Z AUTO 00000KT 1SM R33/4000VP6000FT BR VV002 13/13 A3024 RMK AO2 SLP242
  • 041255Z AUTO 00000KT 5/8SM R33/3000V6000FT BR VV002 13/13 A3024 RMK AO2 VIS 1/8V5/8 SLP242 T01280128
  • 041247Z AUTO 35004KT 1/4SM R33/1600V3500FT FG BKN001 13/13 A3024 RMK AO2 SLP242

TAF TAF KWRB
Valid from the 04 at 09:00 until the 05 at 15:00 UTC


040900Z 0409/0515 VRB06KT 0400 FG VV001 QNH3021INS
BECMG 0413/0414 VRB03KT 4800 BR BKN015 OVC020 QNH3032INS
BECMG 0417/0418 VRB06KT 9999 NSW BKN030 OVC200 QNH3010INS
BECMG 0421/0422 35009KT 9000 -SHRA SCT020 BKN030 QNH3014INS
BECMG 0500/0501 VRB06KT 9999 NSW FEW030 SCT070 QNH3012INS
BECMG 0508/0509 VRB06KT 8000 BR BKN010 QNH3010INS TX20/0417Z TN10/0411Z
KZTL FIR / North America



MET'MAP, your aeronautical weather chart ! - Copyright ORBIFLY December 2007 - Disclaimer

ORBIFLY MET'MAP TEAM :

Programming & Development : Alexandra Zaïnal
Original concept : Baudouin d'Aumeries
Technical & hardware support : Manuel Goepfert
Assistance : Marc-Olivier Méhu




SOURCES & CREDITS :

   NOAA       Earth
Advisory